Terminal Aerodrome Forecast
Issued by NWS Mt. Holly, NJ

Home | Current Version | Previous Version | Text Only | Print | Product List | Glossary On
Versions: 1 2 3 4 5 6 7 8 9 10 11 12 13 14 15 16 17 18 19 20 21 22 23 24 25
000
FTUS41 KPHI 221100
TAFABE
TAF
KABE 221135Z 2212/2312 05005KT P6SM OVC007
      TEMPO 2213/2215 SCT007 OVC015
     FM221500 08004KT P6SM OVC020
     FM221700 09006KT P6SM -SHRA BKN035
     FM230200 09006KT P6SM OVC015
     FM230800 07004KT 5SM BR OVC007=

USA.gov is the U.S. government's official web portal to all federal, state and local government web resources and services.